Time;durP1;ratioP1;P1;durP2;ratioP2;P2;SDS_P1;SDS_P2;PMS_P1;PMS_P2;Temp;Humidity;BMP_temperature;BMP_pressure;BME280_temperature;BME280_humidity;BME280_pressure;Samples;Min_cycle;Max_cycle;Signal;HPM_P1;HPM_P2
2023/01/11 00:00:45;;;;;;;7.13;1.73;;;4.90;99.90;;;;;;4205604;28;20495;-75
2023/01/11 00:02:47;;;;;;;8.47;1.47;;;4.90;99.90;;;;;;4202700;28;20475;-75
2023/01/11 00:04:49;;;;;;;8.43;1.60;;;4.90;99.90;;;;;;4201274;28;20451;-75
2023/01/11 00:06:51;;;;;;;7.40;1.63;;;4.90;99.90;;;;;;4203079;28;20875;-75
2023/01/11 00:08:55;;;;;;;8.83;1.33;;;4.90;99.90;;;;;;4203219;28;21050;-75
2023/01/11 00:11:01;;;;;;;8.83;1.77;;;4.90;99.90;;;;;;4204644;28;20464;-76
2023/01/11 00:13:03;;;;;;;4.77;1.90;;;4.90;99.90;;;;;;4201637;28;20443;-76
2023/01/11 00:15:06;;;;;;;10.73;2.10;;;4.90;99.90;;;;;;4202345;28;20469;-75
2023/01/11 00:17:07;;;;;;;6.97;1.67;;;4.90;99.90;;;;;;4195192;28;20551;-75
2023/01/11 00:19:09;;;;;;;9.50;1.60;;;4.90;99.90;;;;;;4195075;28;20584;-75
2023/01/11 00:21:11;;;;;;;6.83;1.67;;;4.90;99.90;;;;;;4197441;28;20806;-75
2023/01/11 00:23:13;;;;;;;7.00;1.83;;;4.90;99.90;;;;;;4209272;28;20452;-74
2023/01/11 00:25:15;;;;;;;7.63;1.47;;;4.90;99.90;;;;;;4205726;28;20571;-77
2023/01/11 00:27:19;;;;;;;5.87;1.43;;;5.00;99.90;;;;;;4204421;28;20527;-75
2023/01/11 00:29:20;;;;;;;7.20;1.50;;;5.00;99.90;;;;;;4197579;28;20532;-75
2023/01/11 00:31:22;;;;;;;3.50;1.50;;;5.00;99.90;;;;;;4199265;28;20545;-75
2023/01/11 00:33:24;;;;;;;7.03;1.60;;;5.00;99.90;;;;;;4206118;28;20464;-75
2023/01/11 00:35:28;;;;;;;8.10;1.50;;;5.00;99.90;;;;;;4198559;28;20536;-76
2023/01/11 00:37:30;;;;;;;7.07;1.43;;;5.00;99.90;;;;;;4198215;28;20505;-75
2023/01/11 00:39:31;;;;;;;7.53;1.50;;;5.00;99.90;;;;;;4200352;28;20495;-75
2023/01/11 00:48:34;;;;;;;3.50;1.20;;;5.00;99.90;;;;;;4204713;28;20450;-75
2023/01/11 00:50:38;;;;;;;2.97;1.10;;;5.00;99.90;;;;;;4200575;28;20504;-75
2023/01/11 00:52:40;;;;;;;8.20;2.13;;;5.00;99.90;;;;;;4198294;28;20451;-75
2023/01/11 00:54:42;;;;;;;6.63;1.40;;;5.00;99.90;;;;;;4208226;28;20500;-76
2023/01/11 00:56:44;;;;;;;7.80;1.40;;;5.00;99.90;;;;;;4198310;28;20983;-76
2023/01/11 00:58:46;;;;;;;3.33;1.40;;;5.00;99.90;;;;;;4207925;28;20506;-75
2023/01/11 01:00:49;;;;;;;5.57;1.07;;;5.00;99.90;;;;;;4200838;28;20465;-75
2023/01/11 01:02:51;;;;;;;5.80;1.13;;;5.10;99.90;;;;;;4203145;28;20464;-77
2023/01/11 01:04:53;;;;;;;4.37;1.30;;;5.10;99.90;;;;;;4205575;28;21004;-77
2023/01/11 01:06:55;;;;;;;6.47;1.30;;;5.10;99.90;;;;;;4200343;28;20453;-75
2023/01/11 01:08:57;;;;;;;4.13;1.30;;;5.10;99.90;;;;;;4201374;28;20460;-75
2023/01/11 01:10:58;;;;;;;6.73;1.33;;;5.10;99.90;;;;;;4198675;28;20478;-76
2023/01/11 01:15:20;;;;;;;4.00;1.30;;;5.10;99.90;;;;;;4202876;28;20887;-75
2023/01/11 01:17:23;;;;;;;3.33;1.10;;;5.20;99.90;;;;;;4204743;28;21252;-75
2023/01/11 01:19:26;;;;;;;5.33;1.10;;;5.20;99.90;;;;;;4198570;28;20483;-76
2023/01/11 01:21:28;;;;;;;4.67;1.23;;;5.20;99.90;;;;;;4201400;28;20463;-76
2023/01/11 01:23:30;;;;;;;4.57;1.07;;;5.20;99.90;;;;;;4207722;28;20966;-75
2023/01/11 01:25:32;;;;;;;6.83;1.30;;;5.20;99.90;;;;;;4205796;28;20488;-76
2023/01/11 01:27:34;;;;;;;4.47;1.27;;;5.20;99.90;;;;;;4204928;28;20503;-76
2023/01/11 01:29:36;;;;;;;3.33;0.80;;;5.20;99.90;;;;;;4201358;28;20459;-75
2023/01/11 01:31:39;;;;;;;4.70;1.10;;;5.20;99.90;;;;;;4207057;28;20508;-76
2023/01/11 01:33:42;;;;;;;7.97;1.50;;;5.20;99.90;;;;;;4203173;28;20441;-75
2023/01/11 01:35:44;;;;;;;5.57;1.20;;;5.20;99.90;;;;;;4204941;28;20556;-76
2023/01/11 01:37:46;;;;;;;2.50;0.97;;;5.20;99.90;;;;;;4199234;28;20483;-76
2023/01/11 01:39:48;;;;;;;2.67;1.00;;;5.20;99.90;;;;;;4202507;28;20455;-77
2023/01/11 01:41:49;;;;;;;2.90;1.00;;;5.20;99.90;;;;;;4201056;28;20572;-75
2023/01/11 01:43:53;;;;;;;4.73;1.00;;;5.20;99.90;;;;;;4204751;28;20954;-75
2023/01/11 01:45:55;;;;;;;6.30;1.00;;;5.30;99.90;;;;;;4203363;28;21020;-76
2023/01/11 01:48:00;;;;;;;5.53;1.20;;;5.30;99.90;;;;;;4200753;28;20453;-76
2023/01/11 01:50:08;;;;;;;2.77;0.90;;;5.30;99.90;;;;;;4205166;28;20491;-76
2023/01/11 01:52:11;;;;;;;3.83;1.23;;;5.30;99.90;;;;;;4197566;28;20494;-75
2023/01/11 01:54:18;;;;;;;5.87;1.00;;;5.40;99.90;;;;;;4200941;28;20465;-76
2023/01/11 01:56:28;;;;;;;4.07;1.30;;;5.40;99.90;;;;;;4204125;28;20459;-76
2023/01/11 01:58:34;;;;;;;2.73;0.90;;;5.40;99.90;;;;;;4205590;28;20491;-75
2023/01/11 02:00:38;;;;;;;3.67;1.07;;;5.40;99.90;;;;;;4204893;28;21091;-76
2023/01/11 02:02:43;;;;;;;3.80;1.30;;;5.40;99.90;;;;;;4199118;28;20457;-76
2023/01/11 02:04:48;;;;;;;8.10;1.20;;;5.40;99.90;;;;;;4198862;28;20465;-75
2023/01/11 02:06:54;;;;;;;5.53;0.97;;;5.40;99.90;;;;;;4196611;28;20492;-76
2023/01/11 02:09:03;;;;;;;5.17;1.17;;;5.40;99.90;;;;;;4206057;28;20463;-75
2023/01/11 02:11:28;;;;;;;3.13;1.03;;;5.40;99.90;;;;;;4206010;28;20522;-75
2023/01/11 02:13:30;;;;;;;4.00;1.03;;;5.40;99.90;;;;;;4201760;28;20458;-75
2023/01/11 02:15:32;;;;;;;2.83;0.90;;;5.40;99.90;;;;;;4203809;28;20540;-75
2023/01/11 02:17:34;;;;;;;6.03;1.13;;;5.40;99.90;;;;;;4205732;28;20541;-76
2023/01/11 02:19:51;;;;;;;4.63;1.20;;;5.40;99.90;;;;;;4200108;28;20544;-75
2023/01/11 02:22:14;;;;;;;4.67;1.20;;;5.40;99.90;;;;;;4204596;28;20464;-75
2023/01/11 02:24:55;;;;;;;1.63;0.80;;;5.40;99.90;;;;;;4205927;28;20517;-77
2023/01/11 02:27:17;;;;;;;5.73;1.10;;;5.40;99.90;;;;;;4198645;28;20454;-76
2023/01/11 02:29:32;;;;;;;5.47;1.30;;;5.30;99.90;;;;;;4209373;28;20484;-78
2023/01/11 02:31:41;;;;;;;3.50;1.00;;;5.30;99.90;;;;;;4199198;28;20500;-77
2023/01/11 02:33:52;;;;;;;7.57;1.17;;;5.30;99.90;;;;;;4205782;28;20962;-76
2023/01/11 02:36:08;;;;;;;4.07;1.10;;;5.30;99.90;;;;;;4203378;28;20498;-77
2023/01/11 02:38:19;;;;;;;5.27;1.30;;;5.20;99.90;;;;;;4200514;28;20868;-77
2023/01/11 02:40:27;;;;;;;2.40;1.10;;;5.30;99.90;;;;;;4203578;28;21062;-76
2023/01/11 02:45:07;;;;;;;3.83;0.93;;;5.30;99.90;;;;;;4201385;28;20490;-75
2023/01/11 02:47:17;;;;;;;6.03;1.17;;;5.30;99.90;;;;;;4199332;28;20493;-75
2023/01/11 02:49:30;;;;;;;3.40;0.90;;;5.30;99.90;;;;;;4202213;28;20524;-75
2023/01/11 02:51:38;;;;;;;5.17;1.57;;;5.30;99.90;;;;;;4203442;28;20607;-75
2023/01/11 02:53:46;;;;;;;3.87;1.10;;;5.30;99.90;;;;;;4200635;28;20467;-75
2023/01/11 02:55:52;;;;;;;4.63;1.17;;;5.30;99.90;;;;;;4203151;28;20489;-75
2023/01/11 02:57:58;;;;;;;2.03;1.10;;;5.30;99.90;;;;;;4200196;28;20458;-75
2023/01/11 03:00:03;;;;;;;3.33;1.10;;;5.30;99.90;;;;;;4201460;28;20475;-75
2023/01/11 03:02:05;;;;;;;4.43;1.37;;;5.30;99.90;;;;;;4203670;28;20525;-75
2023/01/11 03:04:23;;;;;;;4.13;1.17;;;5.30;99.90;;;;;;4196228;28;20500;-75
2023/01/11 03:06:28;;;;;;;3.37;1.00;;;5.30;99.90;;;;;;4196535;28;20434;-76
2023/01/11 03:08:55;;;;;;;6.80;1.03;;;5.30;99.90;;;;;;4203428;28;20480;-74
2023/01/11 03:11:04;;;;;;;4.97;1.03;;;5.30;99.90;;;;;;4203154;28;21047;-76
2023/01/11 03:13:15;;;;;;;2.97;0.90;;;5.30;99.90;;;;;;4201328;28;20457;-75
2023/01/11 03:15:41;;;;;;;4.77;1.10;;;5.30;99.90;;;;;;4200991;28;20883;-76
2023/01/11 03:17:50;;;;;;;3.30;1.13;;;5.30;99.90;;;;;;4184560;28;20936;-76
2023/01/11 03:19:55;;;;;;;2.97;0.83;;;5.30;99.90;;;;;;4205319;28;20566;-75
2023/01/11 03:22:03;;;;;;;4.73;1.23;;;5.30;99.90;;;;;;4197349;28;20481;-76
2023/01/11 03:24:15;;;;;;;4.37;1.10;;;5.20;99.90;;;;;;4196786;28;20490;-76
2023/01/11 03:26:27;;;;;;;2.83;0.97;;;5.20;99.90;;;;;;4202713;28;20453;-75
2023/01/11 03:28:36;;;;;;;5.17;1.20;;;5.30;99.90;;;;;;4201384;28;20473;-75
2023/01/11 03:30:48;;;;;;;9.67;1.10;;;5.30;99.90;;;;;;4204670;28;20564;-76
2023/01/11 03:32:54;;;;;;;4.03;1.00;;;5.30;99.90;;;;;;4203370;28;20551;-75
2023/01/11 03:35:11;;;;;;;2.50;0.83;;;5.30;99.90;;;;;;4204458;28;20490;-75
2023/01/11 03:37:20;;;;;;;3.00;1.00;;;5.30;99.90;;;;;;4199135;28;20814;-75
2023/01/11 03:39:26;;;;;;;5.40;1.60;;;5.30;99.90;;;;;;4200691;28;20458;-75
2023/01/11 03:41:33;;;;;;;5.90;1.00;;;5.30;99.90;;;;;;4204276;28;20920;-76
2023/01/11 03:43:38;;;;;;;2.47;0.87;;;5.30;99.90;;;;;;4202968;28;20498;-75
2023/01/11 03:45:48;;;;;;;3.37;1.17;;;5.40;99.90;;;;;;4204512;28;20507;-75
2023/01/11 03:47:53;;;;;;;4.90;0.80;;;5.30;99.90;;;;;;4196939;28;20475;-76
2023/01/11 03:49:59;;;;;;;5.73;1.17;;;5.40;99.90;;;;;;4202989;28;20506;-77
2023/01/11 03:52:04;;;;;;;5.30;1.07;;;5.40;99.90;;;;;;4201119;28;20476;-75
2023/01/11 03:54:09;;;;;;;3.67;0.93;;;5.40;99.90;;;;;;4196557;28;20480;-76
2023/01/11 03:56:15;;;;;;;3.73;0.97;;;5.40;99.90;;;;;;4205420;28;20459;-75
2023/01/11 03:58:18;;;;;;;5.40;1.00;;;5.40;99.90;;;;;;4201330;28;20493;-75
2023/01/11 04:00:21;;;;;;;4.27;1.50;;;5.40;99.90;;;;;;4203454;28;20450;-76
2023/01/11 04:02:27;;;;;;;5.57;1.27;;;5.50;99.90;;;;;;4200671;28;20540;-75
2023/01/11 04:04:29;;;;;;;4.83;1.27;;;5.50;99.90;;;;;;4199231;28;20530;-76
2023/01/11 04:06:33;;;;;;;2.87;0.93;;;5.50;99.90;;;;;;4198646;28;20500;-75
2023/01/11 04:08:35;;;;;;;2.90;0.90;;;5.50;99.90;;;;;;4195917;28;20449;-75
2023/01/11 04:10:38;;;;;;;2.63;1.03;;;5.60;99.90;;;;;;4196497;28;20573;-75
2023/01/11 04:12:40;;;;;;;6.63;1.20;;;5.50;99.90;;;;;;4201652;28;20453;-75
2023/01/11 04:14:41;;;;;;;5.17;1.10;;;5.50;99.90;;;;;;4203911;28;20564;-76
2023/01/11 04:16:43;;;;;;;2.77;1.10;;;5.50;99.90;;;;;;4195849;28;20971;-77
2023/01/11 04:18:47;;;;;;;2.77;0.97;;;5.50;99.90;;;;;;4203975;28;20585;-77
2023/01/11 04:20:48;;;;;;;1.87;0.80;;;5.50;99.90;;;;;;4199787;28;20473;-75
2023/01/11 04:22:50;;;;;;;5.00;1.10;;;5.50;99.90;;;;;;4201064;28;20460;-76
2023/01/11 04:24:52;;;;;;;4.03;1.03;;;5.50;99.90;;;;;;4200055;28;20480;-76
2023/01/11 04:26:54;;;;;;;4.13;1.00;;;5.50;99.90;;;;;;4202423;28;20493;-75
2023/01/11 04:28:56;;;;;;;4.13;1.23;;;5.50;99.90;;;;;;4208004;28;20450;-76
2023/01/11 04:30:58;;;;;;;4.70;1.10;;;5.50;99.90;;;;;;4195889;28;20513;-77
2023/01/11 04:33:00;;;;;;;5.40;1.30;;;5.50;99.90;;;;;;4196823;28;20492;-76
2023/01/11 04:35:04;;;;;;;3.23;1.10;;;5.50;99.90;;;;;;4201047;28;21233;-75
2023/01/11 04:37:05;;;;;;;4.53;1.03;;;5.50;99.90;;;;;;4201601;28;20464;-75
2023/01/11 04:39:09;;;;;;;3.37;1.17;;;5.50;99.90;;;;;;4201868;28;21003;-75
2023/01/11 04:43:31;;;;;;;4.03;1.10;;;5.50;99.90;;;;;;4199828;28;20482;-77
2023/01/11 04:45:33;;;;;;;2.73;0.93;;;5.50;99.90;;;;;;4199958;28;20458;-77
2023/01/11 04:47:34;;;;;;;8.43;1.40;;;5.50;99.90;;;;;;4202894;28;21027;-77
2023/01/11 04:49:36;;;;;;;6.43;1.40;;;5.50;99.90;;;;;;4198874;28;20462;-77
2023/01/11 04:51:40;;;;;;;4.03;1.20;;;5.50;99.90;;;;;;4204786;28;20462;-76
2023/01/11 04:53:41;;;;;;;2.30;1.13;;;5.50;99.90;;;;;;4200360;28;20811;-75
2023/01/11 04:55:43;;;;;;;2.23;0.90;;;5.40;99.90;;;;;;4206496;28;20539;-76
2023/01/11 04:57:45;;;;;;;2.23;1.00;;;5.50;99.90;;;;;;4198292;28;20541;-76
2023/01/11 04:59:48;;;;;;;2.90;1.17;;;5.50;99.90;;;;;;4198140;28;20517;-76
2023/01/11 05:01:50;;;;;;;1.43;0.73;;;5.50;99.90;;;;;;4196222;28;20601;-75
2023/01/11 05:03:52;;;;;;;4.60;0.93;;;5.50;99.90;;;;;;4196910;28;20522;-76
2023/01/11 05:05:57;;;;;;;3.50;1.00;;;5.50;99.90;;;;;;4203042;28;20870;-76
2023/01/11 05:08:00;;;;;;;2.37;1.07;;;5.50;99.90;;;;;;4199946;28;21375;-75
2023/01/11 05:10:02;;;;;;;1.80;1.20;;;5.50;99.90;;;;;;4205786;28;20484;-75
2023/01/11 05:12:04;;;;;;;6.20;1.30;;;5.50;99.90;;;;;;4201598;28;20486;-76
2023/01/11 05:14:07;;;;;;;3.17;1.23;;;5.50;99.90;;;;;;4202984;28;20461;-76
2023/01/11 05:16:10;;;;;;;3.63;1.30;;;5.50;99.90;;;;;;4199877;28;20489;-75
2023/01/11 05:18:12;;;;;;;5.83;1.30;;;5.50;99.90;;;;;;4199821;28;20601;-77
2023/01/11 05:20:14;;;;;;;2.47;1.13;;;5.50;99.90;;;;;;4197177;28;21101;-79
2023/01/11 05:22:15;;;;;;;3.00;1.00;;;5.50;99.90;;;;;;4198702;28;20478;-75
2023/01/11 05:24:19;;;;;;;2.17;1.07;;;5.50;99.90;;;;;;4205068;28;20454;-75
2023/01/11 05:26:23;;;;;;;2.33;1.13;;;5.50;99.90;;;;;;4205516;28;20457;-78
2023/01/11 05:28:25;;;;;;;3.30;1.30;;;5.50;99.90;;;;;;4198058;28;20453;-78
2023/01/11 05:30:27;;;;;;;2.73;1.30;;;5.50;99.90;;;;;;4196625;28;20494;-79
2023/01/11 05:32:29;;;;;;;5.67;1.47;;;5.50;99.90;;;;;;4200776;28;20466;-77
2023/01/11 05:34:31;;;;;;;9.57;3.00;;;5.50;99.90;;;;;;4201116;28;20461;-75
2023/01/11 05:36:34;;;;;;;5.83;1.67;;;5.50;99.90;;;;;;4198077;28;20492;-75
2023/01/11 05:38:36;;;;;;;3.03;1.40;;;5.50;99.90;;;;;;4201140;28;20498;-75
2023/01/11 05:40:39;;;;;;;2.53;1.20;;;5.50;99.90;;;;;;4201576;28;20554;-78
2023/01/11 05:42:41;;;;;;;5.13;1.20;;;5.60;99.90;;;;;;4198845;28;20450;-79
2023/01/11 05:47:03;;;;;;;5.03;1.30;;;5.60;99.90;;;;;;4198544;28;20462;-79
2023/01/11 05:49:05;;;;;;;3.63;1.20;;;5.60;99.90;;;;;;4197528;28;20456;-75
2023/01/11 05:51:07;;;;;;;2.33;1.30;;;5.60;99.90;;;;;;4205365;28;20469;-80
2023/01/11 05:53:09;;;;;;;2.73;1.57;;;5.60;99.90;;;;;;4209247;28;20490;-79
2023/01/11 05:55:11;;;;;;;4.03;1.30;;;5.60;99.90;;;;;;4203338;28;20519;-77
2023/01/11 05:57:14;;;;;;;3.73;1.60;;;5.70;99.90;;;;;;4203033;28;20481;-80
2023/01/11 05:59:17;;;;;;;4.50;1.47;;;5.60;99.90;;;;;;4202077;28;20888;-80
2023/01/11 06:01:21;;;;;;;5.00;1.37;;;5.70;99.90;;;;;;4202967;28;20500;-79
2023/01/11 06:03:24;;;;;;;2.93;1.20;;;5.70;99.90;;;;;;4205862;28;20524;-79
2023/01/11 06:05:27;;;;;;;3.10;1.30;;;5.70;99.90;;;;;;4199582;28;20479;-78
2023/01/11 06:07:28;;;;;;;2.60;1.20;;;5.70;99.90;;;;;;4204122;28;20445;-77
2023/01/11 06:09:30;;;;;;;4.17;1.47;;;5.70;99.90;;;;;;4199589;28;20827;-79
2023/01/11 06:11:32;;;;;;;2.33;1.20;;;6.10;99.90;;;;;;4206474;28;20578;-79
2023/01/11 06:13:36;;;;;;;1.27;1.10;;;5.70;99.90;;;;;;4203921;28;20557;-79
2023/01/11 06:15:38;;;;;;;2.67;1.40;;;5.70;99.90;;;;;;4204839;28;20554;-80
2023/01/11 06:17:40;;;;;;;2.90;1.63;;;5.70;99.90;;;;;;4206360;28;20882;-79
2023/01/11 06:19:42;;;;;;;6.13;1.50;;;5.80;99.90;;;;;;4206534;28;20515;-80
2023/01/11 06:21:44;;;;;;;4.27;1.40;;;5.80;99.90;;;;;;4200050;28;20477;-79
2023/01/11 06:23:49;;;;;;;3.07;1.40;;;6.00;99.90;;;;;;4207113;28;20449;-79
2023/01/11 06:25:51;;;;;;;4.53;1.30;;;5.90;99.90;;;;;;4202124;28;20450;-79
2023/01/11 06:27:53;;;;;;;3.13;1.80;;;5.80;99.90;;;;;;4207486;28;20454;-79
2023/01/11 06:29:57;;;;;;;3.93;1.30;;;5.80;99.90;;;;;;4206365;28;20462;-78
2023/01/11 06:31:58;;;;;;;5.40;1.50;;;5.80;99.90;;;;;;4211793;28;20515;-76
2023/01/11 06:34:00;;;;;;;3.23;1.30;;;5.50;99.90;;;;;;4216081;28;20465;-77
2023/01/11 06:36:05;;;;;;;3.23;1.40;;;5.90;99.90;;;;;;4213872;28;20469;-78
2023/01/11 06:38:08;;;;;;;4.43;1.40;;;5.90;99.90;;;;;;4209277;28;20467;-78
2023/01/11 06:40:11;;;;;;;2.57;1.30;;;5.90;99.90;;;;;;4209862;28;20481;-77
2023/01/11 06:42:13;;;;;;;4.40;1.40;;;5.90;99.90;;;;;;4203986;28;20467;-77
2023/01/11 06:44:15;;;;;;;4.63;1.60;;;5.90;99.90;;;;;;4202924;28;20464;-77
2023/01/11 06:46:18;;;;;;;2.50;1.43;;;5.90;99.90;;;;;;4204783;28;20496;-77
2023/01/11 06:48:22;;;;;;;2.30;1.37;;;5.90;99.90;;;;;;4200375;28;20497;-79
2023/01/11 06:50:24;;;;;;;5.60;1.40;;;5.90;99.90;;;;;;4209872;28;20446;-78
2023/01/11 06:52:26;;;;;;;3.80;1.30;;;5.90;99.90;;;;;;4213028;28;20454;-78
2023/01/11 06:54:27;;;;;;;3.77;1.60;;;5.80;99.90;;;;;;4208865;28;20461;-76
2023/01/11 06:56:29;;;;;;;3.87;1.43;;;5.90;99.90;;;;;;4201798;28;20469;-77
2023/01/11 06:58:31;;;;;;;2.77;1.40;;;5.80;99.90;;;;;;4203431;28;20472;-79
2023/01/11 07:00:33;;;;;;;2.47;1.40;;;5.80;99.90;;;;;;4199287;28;20861;-79
2023/01/11 07:02:37;;;;;;;3.07;1.37;;;5.80;99.90;;;;;;4202511;28;20979;-79
2023/01/11 07:04:39;;;;;;;2.43;1.00;;;5.80;99.90;;;;;;4200315;28;21018;-78
2023/01/11 07:06:41;;;;;;;2.80;1.33;;;5.90;99.90;;;;;;4203996;28;20439;-78
2023/01/11 07:08:45;;;;;;;3.50;1.10;;;5.90;99.90;;;;;;4202391;28;20447;-79
2023/01/11 07:10:48;;;;;;;3.13;1.40;;;5.90;99.90;;;;;;4207195;28;20528;-78
2023/01/11 07:12:50;;;;;;;2.13;1.00;;;6.00;99.90;;;;;;4203341;28;20963;-77
2023/01/11 07:14:52;;;;;;;2.50;1.00;;;6.00;99.90;;;;;;4204665;28;20821;-76
2023/01/11 07:16:54;;;;;;;1.07;0.80;;;6.00;99.90;;;;;;4206713;28;20471;-78
2023/01/11 07:18:59;;;;;;;3.60;0.90;;;6.10;99.90;;;;;;4204089;28;20462;-79
2023/01/11 07:21:02;;;;;;;1.37;0.90;;;6.10;99.90;;;;;;4213189;28;20482;-79
2023/01/11 07:23:04;;;;;;;1.33;0.80;;;6.20;99.90;;;;;;4206364;28;20488;-80
2023/01/11 07:25:07;;;;;;;1.67;0.97;;;6.20;99.90;;;;;;4203056;28;20454;-80
2023/01/11 07:27:09;;;;;;;1.63;0.80;;;6.20;99.90;;;;;;4200352;28;20467;-79
2023/01/11 07:29:11;;;;;;;1.10;0.80;;;6.20;99.90;;;;;;4206109;28;20458;-79
2023/01/11 07:31:13;;;;;;;1.70;0.70;;;6.20;99.90;;;;;;4201312;28;20475;-79
2023/01/11 07:33:15;;;;;;;1.90;0.77;;;6.30;99.90;;;;;;4204401;28;20630;-79
2023/01/11 07:35:18;;;;;;;1.10;0.77;;;6.30;99.90;;;;;;4202485;28;20478;-79
2023/01/11 07:37:21;;;;;;;1.30;0.90;;;6.30;99.90;;;;;;4205469;28;20453;-80
2023/01/11 07:39:23;;;;;;;1.10;0.83;;;6.30;99.90;;;;;;4205471;28;20454;-80
2023/01/11 07:43:44;;;;;;;1.67;1.00;;;6.30;99.90;;;;;;4208992;28;20458;-79
2023/01/11 07:45:48;;;;;;;1.40;0.90;;;6.40;99.90;;;;;;4209606;28;20454;-79
2023/01/11 07:47:50;;;;;;;3.53;0.80;;;6.40;99.90;;;;;;4212403;28;20460;-79
2023/01/11 07:49:52;;;;;;;2.63;0.60;;;6.50;99.90;;;;;;4211095;28;20963;-80
2023/01/11 07:51:56;;;;;;;1.73;0.77;;;6.50;99.90;;;;;;4217793;28;20472;-77
2023/01/11 07:54:01;;;;;;;1.50;0.90;;;6.50;99.90;;;;;;4213392;28;20873;-78
2023/01/11 07:56:03;;;;;;;3.37;0.90;;;6.60;99.90;;;;;;4222403;28;20446;-78
2023/01/11 07:58:05;;;;;;;2.50;0.77;;;6.60;99.90;;;;;;4222823;28;20450;-78
2023/01/11 08:00:10;;;;;;;0.73;0.73;;;6.60;99.90;;;;;;4212492;28;20533;-78
2023/01/11 08:02:12;;;;;;;2.43;0.70;;;6.70;99.90;;;;;;4211424;28;20482;-78
2023/01/11 08:04:14;;;;;;;1.50;0.87;;;6.70;99.90;;;;;;4211463;28;20458;-79
2023/01/11 08:06:16;;;;;;;1.47;0.80;;;6.70;99.90;;;;;;4208301;28;20451;-79
2023/01/11 08:08:19;;;;;;;1.63;0.90;;;6.70;99.90;;;;;;4200528;28;21035;-81
2023/01/11 08:10:24;;;;;;;1.63;0.90;;;6.80;99.90;;;;;;4204491;28;20437;-79
2023/01/11 08:14:45;;;;;;;0.90;0.60;;;6.70;99.90;;;;;;4205659;28;20457;-79
2023/01/11 08:16:47;;;;;;;1.37;0.83;;;6.70;99.90;;;;;;4206733;28;20446;-78
2023/01/11 08:18:49;;;;;;;2.77;1.27;;;6.80;99.90;;;;;;4213749;28;20201;-78
2023/01/11 08:20:52;;;;;;;2.63;1.20;;;6.90;99.90;;;;;;4211889;28;20556;-79
2023/01/11 08:22:54;;;;;;;2.53;0.70;;;6.90;99.90;;;;;;4211823;28;20458;-78
2023/01/11 08:24:58;;;;;;;3.57;0.80;;;6.90;99.90;;;;;;4210235;28;20826;-80
2023/01/11 08:27:00;;;;;;;1.90;0.73;;;6.90;99.90;;;;;;4210322;28;20680;-78
2023/01/11 08:29:02;;;;;;;1.33;0.87;;;6.90;99.90;;;;;;4209532;28;20442;-76
2023/01/11 08:31:08;;;;;;;1.70;0.83;;;7.10;99.90;;;;;;4207275;28;20504;-78
2023/01/11 08:33:10;;;;;;;2.13;0.57;;;7.10;99.90;;;;;;4200598;28;21179;-79
2023/01/11 08:35:12;;;;;;;0.77;0.50;;;7.10;99.90;;;;;;4201737;28;20508;-79
2023/01/11 08:37:14;;;;;;;2.50;0.63;;;7.10;99.90;;;;;;4202077;28;20463;-80
2023/01/11 08:39:16;;;;;;;1.00;0.60;;;7.20;99.90;;;;;;4203814;28;20508;-78
2023/01/11 08:41:20;;;;;;;0.80;0.60;;;7.20;99.90;;;;;;4200718;28;20497;-79
2023/01/11 08:43:22;;;;;;;3.43;0.60;;;7.30;99.90;;;;;;4202374;28;20458;-80
2023/01/11 08:45:23;;;;;;;3.90;0.60;;;7.30;99.90;;;;;;4199627;28;20442;-79
2023/01/11 08:47:25;;;;;;;2.23;0.63;;;7.30;99.90;;;;;;4200109;28;20491;-79
2023/01/11 08:49:29;;;;;;;1.53;0.57;;;7.40;99.90;;;;;;4205290;28;20452;-79
2023/01/11 08:51:31;;;;;;;1.10;0.60;;;7.40;99.90;;;;;;4205504;28;20471;-79
2023/01/11 08:53:33;;;;;;;1.30;0.60;;;7.40;99.90;;;;;;4207048;28;20470;-79
2023/01/11 08:55:35;;;;;;;2.00;0.70;;;7.50;99.90;;;;;;4205350;28;20990;-80
2023/01/11 08:57:38;;;;;;;0.80;0.67;;;7.50;99.90;;;;;;4202519;28;20455;-79
2023/01/11 08:59:40;;;;;;;0.70;0.60;;;7.50;99.90;;;;;;4204251;28;20492;-80
2023/01/11 09:01:42;;;;;;;0.90;0.60;;;7.60;99.90;;;;;;4201662;28;20487;-79
2023/01/11 09:03:44;;;;;;;0.83;0.50;;;7.60;99.90;;;;;;4205517;28;20464;-78
2023/01/11 09:05:46;;;;;;;2.53;0.70;;;7.70;99.90;;;;;;4210302;28;21046;-79
2023/01/11 09:07:48;;;;;;;3.20;0.80;;;7.70;99.90;;;;;;4204709;28;20460;-80
2023/01/11 09:09:52;;;;;;;1.47;0.60;;;7.70;99.90;;;;;;4203392;28;20866;-80
2023/01/11 09:11:57;;;;;;;1.10;0.50;;;7.70;99.90;;;;;;4201968;28;20460;-79
2023/01/11 09:14:01;;;;;;;0.70;0.50;;;7.70;99.90;;;;;;4202375;28;20491;-78
2023/01/11 09:16:03;;;;;;;1.00;0.40;;;7.80;99.90;;;;;;4208951;28;20554;-79
2023/01/11 09:18:05;;;;;;;2.23;0.60;;;7.80;99.90;;;;;;4210112;28;20459;-78
2023/01/11 09:20:11;;;;;;;1.37;0.70;;;7.80;99.90;;;;;;4206123;28;20455;-80
2023/01/11 09:22:12;;;;;;;1.13;0.40;;;7.70;99.90;;;;;;4203043;28;20566;-80
2023/01/11 09:24:15;;;;;;;1.03;0.43;;;7.90;99.90;;;;;;4203368;28;20551;-79
2023/01/11 09:26:17;;;;;;;0.83;0.60;;;7.90;99.90;;;;;;4206611;28;20490;-80
2023/01/11 09:28:19;;;;;;;0.43;0.40;;;7.90;99.90;;;;;;4211729;28;20547;-78
2023/01/11 09:30:23;;;;;;;0.80;0.40;;;8.00;99.90;;;;;;4208567;28;20474;-80
2023/01/11 09:32:25;;;;;;;1.33;0.50;;;8.10;99.90;;;;;;4214932;28;20450;-80
2023/01/11 09:34:27;;;;;;;0.60;0.50;;;8.00;99.90;;;;;;4204852;28;20460;-80
2023/01/11 09:36:31;;;;;;;0.60;0.53;;;8.10;99.90;;;;;;4205742;28;20485;-79
2023/01/11 09:38:35;;;;;;;1.43;0.50;;;8.10;99.90;;;;;;4206050;28;20521;-79
2023/01/11 09:40:47;;;;;;;1.90;0.40;;;8.30;99.90;;;;;;4205216;28;20514;-80
2023/01/11 09:42:51;;;;;;;4.57;0.60;;;8.10;99.90;;;;;;4203663;28;20213;-79
2023/01/11 09:44:57;;;;;;;1.03;0.50;;;8.10;99.90;;;;;;4205230;28;20283;-78
2023/01/11 09:47:18;;;;;;;0.83;0.40;;;8.20;99.90;;;;;;4202973;28;20458;-80
2023/01/11 09:49:26;;;;;;;1.40;0.50;;;8.20;99.90;;;;;;4204683;28;20477;-80
2023/01/11 09:51:34;;;;;;;2.47;0.47;;;8.30;99.90;;;;;;4207693;28;20252;-78
2023/01/11 09:53:37;;;;;;;1.10;0.50;;;8.30;99.90;;;;;;4206545;28;20482;-79
2023/01/11 09:55:45;;;;;;;0.80;0.40;;;8.30;99.90;;;;;;4207405;28;20288;-76
2023/01/11 09:58:01;;;;;;;1.30;0.60;;;8.30;99.90;;;;;;4207237;28;20578;-79
2023/01/11 10:00:14;;;;;;;0.63;0.50;;;8.30;99.90;;;;;;4212581;28;20232;-79
2023/01/11 10:02:30;;;;;;;1.33;0.70;;;8.40;99.90;;;;;;4201227;28;20259;-78
2023/01/11 10:05:02;;;;;;;0.30;0.30;;;8.50;99.90;;;;;;4202434;28;20271;-80
2023/01/11 10:07:21;;;;;;;1.17;0.97;;;8.40;99.90;;;;;;4203344;28;20237;-79
2023/01/11 10:09:33;;;;;;;0.60;0.40;;;8.50;99.90;;;;;;4212647;28;20209;-80
2023/01/11 10:11:47;;;;;;;0.83;0.50;;;8.50;99.90;;;;;;4207461;28;20222;-78
2023/01/11 10:13:57;;;;;;;0.80;0.50;;;8.50;99.90;;;;;;4205644;28;20813;-80
2023/01/11 10:16:08;;;;;;;1.23;0.50;;;8.60;99.90;;;;;;4204674;28;20292;-78
2023/01/11 10:18:29;;;;;;;2.70;0.53;;;8.60;99.90;;;;;;4203315;28;20260;-80
2023/01/11 10:20:38;;;;;;;0.57;0.40;;;8.60;99.90;;;;;;4205448;28;20240;-78
2023/01/11 10:22:45;;;;;;;0.77;0.40;;;8.60;99.90;;;;;;4207487;28;20240;-77
2023/01/11 10:24:51;;;;;;;1.80;0.53;;;8.70;99.90;;;;;;4205382;28;20204;-78
2023/01/11 10:26:57;;;;;;;0.87;0.43;;;8.70;99.90;;;;;;4203006;28;20205;-79
2023/01/11 10:29:20;;;;;;;0.50;0.40;;;8.70;99.90;;;;;;4204600;28;20205;-79
2023/01/11 10:31:28;;;;;;;1.40;0.50;;;8.80;99.90;;;;;;4206510;28;20226;-79
2023/01/11 10:33:48;;;;;;;1.00;0.40;;;8.80;99.90;;;;;;4201506;28;20215;-78
2023/01/11 10:36:09;;;;;;;0.50;0.50;;;8.80;99.90;;;;;;4202301;28;20206;-79
2023/01/11 10:38:39;;;;;;;0.60;0.40;;;8.80;99.90;;;;;;4204369;28;20207;-76
2023/01/11 10:43:20;;;;;;;1.20;0.80;;;8.80;99.90;;;;;;4188801;28;20216;-79
2023/01/11 10:45:28;;;;;;;0.90;0.60;;;8.80;99.90;;;;;;4207555;28;20212;-79
2023/01/11 10:47:36;;;;;;;0.73;0.60;;;8.90;99.90;;;;;;4206485;28;20201;-78
2023/01/11 10:49:48;;;;;;;0.73;0.50;;;8.90;99.90;;;;;;4213451;28;20218;-79
2023/01/11 10:51:50;;;;;;;0.30;0.30;;;8.90;99.90;;;;;;4204275;28;20251;-78
2023/01/11 10:54:11;;;;;;;0.87;0.40;;;8.90;99.90;;;;;;4204444;28;20299;-78
2023/01/11 10:56:23;;;;;;;1.60;0.50;;;9.00;99.90;;;;;;4207278;28;20205;-78
2023/01/11 10:58:43;;;;;;;0.53;0.30;;;9.00;99.90;;;;;;4204448;28;20264;-77
2023/01/11 11:00:55;;;;;;;0.90;0.40;;;9.20;99.90;;;;;;4206002;28;20230;-76
2023/01/11 11:03:27;;;;;;;1.53;0.40;;;9.00;99.90;;;;;;4204114;28;20213;-80
2023/01/11 11:05:40;;;;;;;0.90;0.40;;;9.00;99.90;;;;;;4203827;28;20237;-77
2023/01/11 11:07:50;;;;;;;0.60;0.40;;;8.90;99.90;;;;;;4201547;28;20214;-77
2023/01/11 11:10:00;;;;;;;1.00;0.40;;;9.00;99.90;;;;;;4201425;28;20217;-77
2023/01/11 11:12:08;;;;;;;0.77;0.50;;;8.90;99.90;;;;;;4201728;28;20224;-77
2023/01/11 11:14:17;;;;;;;0.87;0.40;;;8.90;99.90;;;;;;4201984;28;20208;-77
2023/01/11 11:16:43;;;;;;;0.63;0.50;;;8.80;99.90;;;;;;4200215;28;20685;-78
2023/01/11 11:18:45;;;;;;;1.57;0.60;;;8.80;99.90;;;;;;4201535;28;20690;-77
2023/01/11 11:20:49;;;;;;;2.80;0.60;;;8.70;99.90;;;;;;4204213;28;20217;-78
2023/01/11 11:22:52;;;;;;;1.57;0.70;;;8.60;99.90;;;;;;4195612;28;20210;-76
2023/01/11 11:25:00;;;;;;;1.80;0.60;;;8.50;99.90;;;;;;4204042;28;20206;-78